Time;durP1;ratioP1;P1;durP2;ratioP2;P2;SDS_P1;SDS_P2;PMS_P1;PMS_P2;Temp;Humidity;BMP_temperature;BMP_pressure;BME280_temperature;BME280_humidity;BME280_pressure;Samples;Min_cycle;Max_cycle;Signal;HPM_P1;HPM_P2
2023/04/22 00:02:00;;;;;;;0.50;0.50;;;;;;;10.25;96.74;96697.47;5006503;28;20046;-70
2023/04/22 00:04:27;;;;;;;0.50;0.50;;;;;;;10.16;96.92;96697.75;5005048;28;20085;-70
2023/04/22 00:06:55;;;;;;;0.45;0.45;;;;;;;10.15;97.13;96689.81;5007007;28;20133;-68
2023/04/22 00:09:23;;;;;;;0.50;0.50;;;;;;;9.56;96.79;96596.56;5006256;28;20045;-69
2023/04/22 00:11:50;;;;;;;0.50;0.50;;;;;;;9.84;96.59;96646.72;5006294;28;20500;-69
2023/04/22 00:14:17;;;;;;;0.50;0.50;;;;;;;10.31;94.84;96693.19;5006288;28;20119;-69
2023/04/22 00:16:44;;;;;;;0.43;0.43;;;;;;;9.98;93.89;96652.44;5004837;28;20112;-70
2023/04/22 00:19:10;;;;;;;0.43;0.43;;;;;;;10.28;94.56;96689.22;5006072;28;20061;-68
2023/04/22 00:21:37;;;;;;;0.50;0.50;;;;;;;10.30;93.39;96703.50;5006120;28;20109;-69
2023/04/22 00:24:04;;;;;;;0.50;0.50;;;;;;;10.14;92.71;96697.34;5006089;28;20050;-69
2023/04/22 00:26:30;;;;;;;0.50;0.50;;;;;;;10.11;92.31;96713.91;5006091;28;20061;-69
2023/04/22 00:28:57;;;;;;;0.50;0.50;;;;;;;9.43;92.34;96711.28;5004797;28;20054;-69
2023/04/22 00:31:24;;;;;;;0.50;0.50;;;;;;;9.71;92.37;96681.31;5006004;28;20128;-69
2023/04/22 00:33:50;;;;;;;0.50;0.50;;;;;;;9.63;94.18;96690.66;5004434;28;20050;-69
2023/04/22 00:36:17;;;;;;;0.50;0.50;;;;;;;9.83;95.61;96705.97;5004198;28;20515;-70
2023/04/22 00:38:50;;;;;;;0.50;0.50;;;;;;;9.90;96.06;96722.66;5005646;28;20073;-69
2023/04/22 00:41:16;;;;;;;0.40;0.40;;;;;;;9.90;95.72;96711.59;5005810;28;20161;-70
2023/04/22 00:43:43;;;;;;;0.43;0.43;;;;;;;9.81;95.57;96677.91;5005492;28;20133;-70
2023/04/22 00:46:10;;;;;;;0.50;0.50;;;;;;;9.44;94.43;96605.06;5005571;28;20058;-69
2023/04/22 00:48:37;;;;;;;0.50;0.50;;;;;;;10.24;93.51;96716.03;5005393;28;20517;-69
2023/04/22 00:51:05;;;;;;;0.45;0.45;;;;;;;9.96;92.56;96674.13;5005340;28;20056;-68
2023/04/22 00:53:31;;;;;;;0.50;0.50;;;;;;;10.21;92.17;96722.34;5005437;28;20050;-67
2023/04/22 00:55:58;;;;;;;0.50;0.50;;;;;;;9.92;92.43;96669.72;5005284;28;20046;-68
2023/04/22 00:58:27;;;;;;;0.50;0.50;;;;;;;9.56;92.58;96612.34;5005466;28;20068;-68
2023/04/22 01:00:54;;;;;;;0.50;0.50;;;;;;;10.41;91.88;96712.72;5003809;28;20500;-68
2023/04/22 01:03:22;;;;;;;0.50;0.50;;;;;;;10.57;89.13;96726.34;5005402;28;20054;-69
2023/04/22 01:05:50;;;;;;;0.50;0.50;;;;;;;10.58;88.48;96725.97;5003455;28;20050;-69
2023/04/22 01:08:16;;;;;;;0.50;0.50;;;;;;;10.54;88.88;96719.56;5003836;28;20171;-68
2023/04/22 01:10:43;;;;;;;0.50;0.50;;;;;;;10.28;88.59;96661.53;5004999;28;20046;-67
2023/04/22 01:13:10;;;;;;;0.50;0.50;;;;;;;10.48;90.46;96707.25;5004815;28;20570;-69
2023/04/22 01:15:37;;;;;;;0.50;0.50;;;;;;;10.28;89.63;96667.06;5003641;28;20077;-69
2023/04/22 01:18:04;;;;;;;0.50;0.50;;;;;;;10.56;89.78;96714.47;5005126;28;20088;-68
2023/04/22 01:20:31;;;;;;;0.50;0.50;;;;;;;10.46;91.09;96706.81;5003270;28;20085;-68
2023/04/22 01:23:01;;;;;;;0.50;0.50;;;;;;;10.49;91.71;96724.66;5003611;28;20508;-66
2023/04/22 01:25:28;;;;;;;0.50;0.50;;;;;;;10.53;91.55;96709.69;4998356;28;20066;-68
2023/04/22 01:27:55;;;;;;;0.45;0.45;;;;;;;10.56;90.55;96708.13;5023447;28;20488;-69
2023/04/22 01:30:22;;;;;;;0.50;0.50;;;;;;;10.69;89.81;96704.72;5024393;28;20518;-68
2023/04/22 01:32:49;;;;;;;0.55;0.55;;;;;;;10.62;89.08;96710.19;5024352;28;20631;-68
2023/04/22 01:35:16;;;;;;;0.50;0.50;;;;;;;10.68;88.22;96711.44;5024330;28;20064;-69
2023/04/22 01:37:43;;;;;;;0.45;0.45;;;;;;;10.65;87.77;96700.34;5023843;28;20504;-68
2023/04/22 01:40:12;;;;;;;0.50;0.50;;;;;;;10.46;89.73;96692.97;5022416;28;20582;-68
2023/04/22 01:42:39;;;;;;;0.50;0.50;;;;;;;10.51;89.93;96697.41;5024112;28;20107;-69
2023/04/22 01:45:06;;;;;;;0.47;0.47;;;;;;;10.24;90.98;96666.22;5022584;28;20475;-68
2023/04/22 01:47:33;;;;;;;0.50;0.50;;;;;;;10.65;89.64;96692.81;5024356;28;20053;-67
2023/04/22 01:49:59;;;;;;;0.50;0.50;;;;;;;10.36;88.83;96643.84;5024551;28;20049;-68
2023/04/22 01:52:26;;;;;;;0.43;0.43;;;;;;;10.66;88.23;96710.22;5024145;28;20072;-68
2023/04/22 01:54:53;;;;;;;0.50;0.50;;;;;;;10.68;88.17;96692.03;5022817;28;20521;-69
2023/04/22 01:57:20;;;;;;;0.43;0.43;;;;;;;10.03;89.57;96582.13;5009347;28;20127;-68
2023/04/22 01:59:47;;;;;;;0.50;0.50;;;;;;;10.84;89.01;96693.78;5004120;28;20559;-69
2023/04/22 02:02:13;;;;;;;0.45;0.45;;;;;;;10.82;87.34;96687.84;5004745;28;20516;-68
2023/04/22 02:04:40;;;;;;;0.50;0.50;;;;;;;10.84;87.62;96679.94;5022798;28;20167;-68
2023/04/22 02:07:06;;;;;;;0.50;0.50;;;;;;;10.78;88.23;96689.78;5023860;28;20045;-68
2023/04/22 02:09:33;;;;;;;0.50;0.50;;;;;;;10.49;87.88;96672.06;5022787;28;20052;-68
2023/04/22 02:12:00;;;;;;;0.40;0.40;;;;;;;10.32;88.03;96609.75;5023836;28;20049;-69
2023/04/22 02:14:27;;;;;;;0.50;0.50;;;;;;;10.60;87.55;96637.78;5023731;28;20053;-69
2023/04/22 02:16:53;;;;;;;0.40;0.40;;;;;;;10.89;87.30;96685.16;5024015;28;20054;-68
2023/04/22 02:19:20;;;;;;;0.50;0.50;;;;;;;10.52;87.85;96638.88;5027021;28;20079;-69
2023/04/22 02:21:47;;;;;;;0.50;0.50;;;;;;;10.82;88.66;96694.19;5027882;28;20061;-69
2023/04/22 02:24:14;;;;;;;0.50;0.50;;;;;;;10.65;89.74;96667.88;5028417;28;20053;-69
2023/04/22 02:26:42;;;;;;;0.50;0.50;;;;;;;10.86;91.60;96691.44;5028041;28;20091;-69
2023/04/22 02:29:08;;;;;;;0.50;0.50;;;;;;;10.25;93.00;96595.88;5027473;28;20092;-69
2023/04/22 02:31:35;;;;;;;0.50;0.50;;;;;;;10.10;93.81;96576.72;5028020;28;20191;-69
2023/04/22 02:34:02;;;;;;;0.50;0.50;;;;;;;10.63;93.94;96645.31;5027589;28;20523;-69
2023/04/22 02:36:28;;;;;;;0.50;0.50;;;;;;;10.81;94.79;96689.03;5027241;28;20064;-70
2023/04/22 02:38:55;;;;;;;0.50;0.50;;;;;;;10.83;95.38;96684.69;5026821;28;20642;-68
2023/04/22 02:41:22;;;;;;;0.50;0.50;;;;;;;10.27;95.43;96587.19;5027301;28;20159;-69
2023/04/22 02:43:48;;;;;;;0.50;0.50;;;;;;;10.89;95.64;96682.38;5026583;28;20049;-69
2023/04/22 02:46:15;;;;;;;0.50;0.50;;;;;;;10.95;94.71;96683.63;5025521;28;20954;-68
2023/04/22 02:48:42;;;;;;;0.50;0.50;;;;;;;10.72;95.88;96664.38;5027249;28;20081;-65
2023/04/22 02:51:09;;;;;;;0.50;0.50;;;;;;;10.78;97.42;96681.47;5026396;28;20448;-66
2023/04/22 02:53:36;;;;;;;0.50;0.50;;;;;;;10.66;98.63;96675.03;5025793;28;20072;-66
2023/04/22 02:56:03;;;;;;;0.50;0.50;;;;;;;10.53;100.00;96679.22;5027514;28;20552;-67
2023/04/22 02:58:31;;;;;;;0.50;0.50;;;;;;;10.07;100.00;96630.81;5026997;28;20053;-67
2023/04/22 03:00:57;;;;;;;0.50;0.50;;;;;;;9.71;100.00;96594.75;5027556;28;20049;-68
2023/04/22 03:03:24;;;;;;;0.50;0.50;;;;;;;10.13;100.00;96665.28;5015437;28;20140;-69
2023/04/22 03:05:51;;;;;;;0.50;0.50;;;;;;;10.10;100.00;96666.03;5007820;28;20057;-67
2023/04/22 03:08:19;;;;;;;0.45;0.45;;;;;;;10.03;100.00;96673.44;5006061;28;20421;-67
2023/04/22 03:10:45;;;;;;;0.50;0.50;;;;;;;9.30;100.00;96570.91;5005896;28;20135;-68
2023/04/22 03:13:13;;;;;;;0.50;0.50;;;;;;;10.05;100.00;96671.88;5006814;28;20085;-67
2023/04/22 03:15:40;;;;;;;0.40;0.40;;;;;;;8.94;100.00;96525.41;5007218;28;20054;-67
2023/04/22 03:18:07;;;;;;;0.50;0.50;;;;;;;9.40;100.00;96604.22;5006814;28;20586;-65
2023/04/22 03:20:35;;;;;;;0.50;0.50;;;;;;;9.92;100.00;96673.31;5007099;28;20057;-67
2023/04/22 03:23:01;;;;;;;0.50;0.50;;;;;;;9.46;100.00;96596.41;5005869;28;20065;-68
2023/04/22 03:25:28;;;;;;;0.50;0.50;;;;;;;10.00;100.00;96683.31;5007237;28;20143;-69
2023/04/22 03:27:54;;;;;;;0.40;0.40;;;;;;;10.11;100.00;96684.25;5007171;28;20045;-68
2023/04/22 03:30:21;;;;;;;0.40;0.40;;;;;;;10.22;100.00;96682.44;5007230;28;20089;-68
2023/04/22 03:32:48;;;;;;;0.40;0.40;;;;;;;10.27;100.00;96676.56;5007001;28;20096;-68
2023/04/22 03:35:15;;;;;;;0.50;0.50;;;;;;;10.08;100.00;96649.03;5006979;28;20049;-67
2023/04/22 03:37:41;;;;;;;0.50;0.50;;;;;;;10.19;100.00;96694.25;5006537;28;20541;-68
2023/04/22 03:40:09;;;;;;;0.50;0.50;;;;;;;10.21;100.00;96683.59;5006513;28;20088;-67
2023/04/22 03:42:35;;;;;;;0.43;0.43;;;;;;;10.38;100.00;96698.81;5006935;28;20049;-66
2023/04/22 03:45:02;;;;;;;0.50;0.50;;;;;;;10.14;100.00;96661.38;5006731;28;20115;-65
2023/04/22 03:47:32;;;;;;;0.40;0.40;;;;;;;9.68;100.00;96632.28;5009486;28;20058;-67
2023/04/22 03:49:59;;;;;;;0.50;0.50;;;;;;;10.02;100.00;96703.06;5026035;28;20491;-66
2023/04/22 03:52:26;;;;;;;0.50;0.50;;;;;;;10.09;100.00;96669.19;5026545;28;20053;-67
2023/04/22 03:54:52;;;;;;;0.50;0.50;;;;;;;10.42;100.00;96705.19;5025987;28;20057;-68
2023/04/22 03:57:19;;;;;;;0.50;0.50;;;;;;;10.52;100.00;96708.09;5025980;28;20499;-67
2023/04/22 03:59:46;;;;;;;0.50;0.50;;;;;;;10.59;100.00;96710.16;5024479;28;20046;-68
2023/04/22 04:02:12;;;;;;;0.50;0.50;;;;;;;10.69;100.00;96706.69;5008008;28;20520;-68
2023/04/22 04:04:39;;;;;;;0.50;0.50;;;;;;;10.50;100.00;96671.69;5023225;28;20053;-67
2023/04/22 04:07:06;;;;;;;0.50;0.50;;;;;;;10.80;100.00;96715.13;5025994;28;20056;-67
2023/04/22 04:09:33;;;;;;;0.50;0.50;;;;;;;10.30;100.00;96659.19;5025944;28;20188;-68
2023/04/22 04:12:00;;;;;;;0.50;0.50;;;;;;;10.72;100.00;96707.94;5024960;28;20094;-67
2023/04/22 04:14:26;;;;;;;0.50;0.50;;;;;;;10.44;100.00;96653.81;5024264;28;20529;-68
2023/04/22 04:16:53;;;;;;;0.50;0.50;;;;;;;10.92;100.00;96723.19;5026161;28;20081;-68
2023/04/22 04:19:20;;;;;;;0.50;0.50;;;;;;;11.06;100.00;96723.31;5025225;28;20057;-69
2023/04/22 04:21:46;;;;;;;0.50;0.50;;;;;;;10.83;100.00;96697.75;5025970;28;20579;-68
2023/04/22 04:24:13;;;;;;;0.40;0.40;;;;;;;11.18;100.00;96714.72;5024370;28;20129;-68
2023/04/22 04:26:40;;;;;;;0.50;0.50;;;;;;;10.76;100.00;96642.25;5026269;28;20131;-68
2023/04/22 04:29:07;;;;;;;0.50;0.50;;;;;;;11.35;100.00;96727.97;5024339;28;20049;-68
2023/04/22 04:31:34;;;;;;;0.50;0.50;;;;;;;11.39;100.00;96732.34;5024253;28;20425;-68
2023/04/22 04:34:00;;;;;;;0.50;0.50;;;;;;;11.38;100.00;96729.97;5023387;28;20053;-67
2023/04/22 04:36:27;;;;;;;0.50;0.50;;;;;;;11.33;100.00;96738.63;5023771;28;20182;-67
2023/04/22 04:38:55;;;;;;;0.50;0.50;;;;;;;11.36;100.00;96732.31;5023181;28;20061;-67
2023/04/22 04:41:22;;;;;;;0.50;0.50;;;;;;;11.44;100.00;96732.00;5023119;28;20050;-69
2023/04/22 04:43:49;;;;;;;0.50;0.50;;;;;;;11.42;100.00;96737.13;5022506;28;20072;-68
2023/04/22 04:46:15;;;;;;;0.50;0.50;;;;;;;11.43;100.00;96737.94;5012114;28;20505;-71
2023/04/22 04:48:42;;;;;;;0.50;0.50;;;;;;;11.52;100.00;96730.06;4986005;28;20054;-68
2023/04/22 04:51:10;;;;;;;0.50;0.50;;;;;;;11.51;100.00;96707.09;4984596;28;20057;-69
2023/04/22 04:53:37;;;;;;;0.50;0.50;;;;;;;11.75;100.00;96739.00;4984188;28;20058;-69
2023/04/22 04:56:03;;;;;;;0.50;0.50;;;;;;;11.78;100.00;96732.69;4985687;28;20074;-69
2023/04/22 04:58:30;;;;;;;0.50;0.50;;;;;;;11.86;99.89;96734.31;5000093;28;20058;-69
2023/04/22 05:00:57;;;;;;;0.50;0.50;;;;;;;12.06;99.23;96727.34;4985745;28;20058;-68
2023/04/22 05:03:23;;;;;;;0.52;0.52;;;;;;;12.10;96.66;96739.25;4985239;28;20050;-68
2023/04/22 05:05:50;;;;;;;0.50;0.50;;;;;;;12.22;95.35;96736.13;4985763;28;20066;-69
2023/04/22 05:08:17;;;;;;;0.60;0.60;;;;;;;12.19;95.21;96714.69;4985493;28;20113;-68
2023/04/22 05:10:44;;;;;;;0.50;0.50;;;;;;;12.42;93.92;96745.78;4985104;28;20088;-67
2023/04/22 05:13:10;;;;;;;0.50;0.50;;;;;;;11.38;93.05;96580.22;4985340;28;20086;-69
2023/04/22 05:15:37;;;;;;;0.60;0.60;;;;;;;12.63;93.04;96740.28;4985365;28;20050;-68
2023/04/22 05:18:05;;;;;;;0.50;0.50;;;;;;;12.89;91.70;96737.22;4983929;28;20505;-68
2023/04/22 05:20:31;;;;;;;0.57;0.57;;;;;;;13.13;88.38;96736.53;4985314;28;20853;-69
2023/04/22 05:23:01;;;;;;;0.60;0.60;;;;;;;11.76;85.85;96507.53;4985591;28;20054;-68
2023/04/22 05:25:28;;;;;;;0.55;0.55;;;;;;;13.20;86.54;96719.84;4983621;28;20158;-69
2023/04/22 05:27:55;;;;;;;0.60;0.60;;;;;;;13.41;86.81;96736.56;4985266;28;20115;-68
2023/04/22 05:30:21;;;;;;;0.60;0.60;;;;;;;13.48;86.49;96730.22;4985031;28;20124;-68
2023/04/22 05:32:48;;;;;;;0.60;0.60;;;;;;;13.57;86.85;96734.19;4985364;28;20058;-68
2023/04/22 05:35:15;;;;;;;0.60;0.60;;;;;;;13.01;86.56;96628.44;4985224;28;20050;-69
2023/04/22 05:37:41;;;;;;;0.60;0.60;;;;;;;13.87;82.98;96741.34;4985276;28;20058;-68
2023/04/22 05:40:08;;;;;;;0.60;0.60;;;;;;;11.08;82.89;96294.16;4993725;28;20512;-64
2023/04/22 05:42:35;;;;;;;0.60;0.60;;;;;;;13.82;81.35;96699.97;4995907;28;20061;-63
2023/04/22 05:45:01;;;;;;;0.60;0.60;;;;;;;13.14;81.37;96587.94;5003031;28;20062;-62
2023/04/22 05:47:29;;;;;;;0.60;0.60;;;;;;;14.22;83.12;96730.16;4996249;28;20554;-69
2023/04/22 05:49:56;;;;;;;0.60;0.60;;;;;;;14.28;82.64;96725.78;4984572;28;20058;-65
2023/04/22 05:52:22;;;;;;;0.60;0.60;;;;;;;14.47;82.53;96725.31;5002173;28;20046;-63
2023/04/22 05:54:49;;;;;;;0.60;0.60;;;;;;;14.61;81.45;96730.84;5003979;28;20057;-62
2023/04/22 05:57:15;;;;;;;0.60;0.60;;;;;;;14.87;82.31;96735.94;4995438;28;20086;-62
2023/04/22 05:59:42;;;;;;;0.60;0.60;;;;;;;14.63;79.83;96655.97;5004569;28;20116;-63
2023/04/22 06:02:09;;;;;;;0.70;0.70;;;;;;;15.38;79.43;96758.38;5003055;28;20580;-65
2023/04/22 06:04:35;;;;;;;0.68;0.68;;;;;;;15.58;78.50;96706.41;5002648;28;20065;-63
2023/04/22 06:07:03;;;;;;;0.70;0.70;;;;;;;15.90;77.44;96732.06;4987076;28;20579;-67
2023/04/22 06:09:30;;;;;;;0.70;0.70;;;;;;;16.06;73.33;96737.91;4982560;28;20088;-59
2023/04/22 06:11:57;;;;;;;0.70;0.70;;;;;;;15.98;75.20;96747.53;4984554;28;20135;-64
2023/04/22 06:14:23;;;;;;;0.60;0.60;;;;;;;15.92;70.51;96740.81;4987658;28;20054;-63
2023/04/22 06:16:51;;;;;;;0.70;0.70;;;;;;;15.51;73.65;96761.47;5002360;28;20108;-62
2023/04/22 06:19:30;;;;;;;0.77;0.77;;;;;;;15.46;71.90;96742.41;4674334;28;10000799;-61
2023/04/22 06:21:57;;;;;;;0.60;0.60;;;;;;;15.52;72.03;96724.81;2909912;28;10002060;-64
2023/04/22 06:24:23;;;;;;;0.70;0.70;;;;;;;15.79;70.26;96750.13;4999063;28;20046;-62
2023/04/22 06:26:50;;;;;;;0.65;0.65;;;;;;;13.69;70.93;96502.78;5002374;28;20129;-71
2023/04/22 06:29:17;;;;;;;0.70;0.70;;;;;;;15.17;70.84;96647.66;5004268;28;20049;-68
2023/04/22 06:31:43;;;;;;;0.60;0.60;;;;;;;15.85;70.91;96721.34;5001958;28;20109;-61
2023/04/22 06:34:10;;;;;;;0.70;0.70;;;;;;;16.38;69.99;96741.19;5003605;28;20065;-64
2023/04/22 06:36:37;;;;;;;0.70;0.70;;;;;;;16.48;68.90;96743.13;5011303;28;20454;-66
2023/04/22 06:39:05;;;;;;;0.70;0.70;;;;;;;16.63;67.75;96740.91;4997243;28;21232;-62
2023/04/22 06:41:32;;;;;;;0.70;0.70;;;;;;;16.26;68.16;96719.34;5016091;28;20104;-67
2023/04/22 06:43:58;;;;;;;0.80;0.80;;;;;;;15.90;65.79;96634.28;5007672;28;20053;-62
2023/04/22 06:46:25;;;;;;;0.70;0.70;;;;;;;16.42;67.09;96727.94;5003442;28;20131;-62
2023/04/22 06:48:51;;;;;;;0.80;0.80;;;;;;;16.34;66.63;96680.94;5000280;28;20046;-62
2023/04/22 06:51:18;;;;;;;0.73;0.73;;;;;;;16.20;68.66;96751.72;5004728;28;20488;-66
2023/04/22 06:53:45;;;;;;;0.70;0.70;;;;;;;15.65;70.18;96745.44;4997740;28;20141;-64
2023/04/22 06:56:12;;;;;;;0.70;0.70;;;;;;;15.36;70.23;96718.09;4999408;28;20104;-64
2023/04/22 06:58:39;;;;;;;0.70;0.70;;;;;;;16.17;69.46;96754.59;4995043;28;20065;-63
2023/04/22 07:01:05;;;;;;;0.80;0.80;;;;;;;16.74;64.77;96760.41;5002657;28;20084;-66
2023/04/22 07:03:32;;;;;;;0.70;0.70;;;;;;;17.05;63.92;96753.59;4984653;28;20058;-64
2023/04/22 07:05:59;;;;;;;0.70;0.70;;;;;;;16.68;65.25;96718.09;4988167;28;20581;-70
2023/04/22 07:08:26;;;;;;;0.70;0.70;;;;;;;15.86;59.86;96476.31;4987368;28;20058;-69
2023/04/22 07:10:53;;;;;;;0.80;0.80;;;;;;;18.16;56.54;96755.97;4988082;28;20046;-69
2023/04/22 07:13:19;;;;;;;0.80;0.80;;;;;;;17.62;56.51;96642.41;4991680;28;20101;-70
2023/04/22 07:15:46;;;;;;;0.80;0.80;;;;;;;18.30;55.28;96750.09;4987629;28;20571;-61
2023/04/22 07:18:13;;;;;;;0.88;0.88;;;;;;;17.94;53.25;96754.75;4987174;28;20517;-69
2023/04/22 07:20:39;;;;;;;0.70;0.70;;;;;;;17.31;53.25;96699.69;4987400;28;20050;-69
2023/04/22 07:23:06;;;;;;;0.80;0.80;;;;;;;17.26;54.37;96658.16;4990926;28;20053;-71
2023/04/22 07:25:33;;;;;;;0.70;0.70;;;;;;;17.45;52.54;96699.50;5001844;28;20049;-67
2023/04/22 07:28:00;;;;;;;0.80;0.80;;;;;;;17.92;52.23;96726.34;5003301;28;20060;-61
2023/04/22 07:30:26;;;;;;;0.80;0.80;;;;;;;18.46;51.50;96741.84;4997622;28;20092;-64
2023/04/22 07:32:53;;;;;;;0.90;0.90;;;;;;;18.47;50.78;96718.16;5006689;28;20053;-67
2023/04/22 07:35:20;;;;;;;0.80;0.80;;;;;;;18.86;49.77;96737.81;5006747;28;20058;-63
2023/04/22 07:37:46;;;;;;;0.80;0.80;;;;;;;18.33;47.89;96630.66;5001011;28;20394;-64
2023/04/22 07:40:13;;;;;;;0.80;0.80;;;;;;;19.13;43.94;96701.16;4986709;28;20488;-65
2023/04/22 07:42:40;;;;;;;0.80;0.80;;;;;;;19.16;43.72;96675.81;4998422;28;20479;-65
2023/04/22 07:45:07;;;;;;;0.80;0.80;;;;;;;20.10;45.29;96741.44;5002266;28;21250;-61
2023/04/22 07:47:33;;;;;;;0.80;0.80;;;;;;;20.03;43.93;96762.09;5005810;28;20080;-61
2023/04/22 07:50:00;;;;;;;0.88;0.88;;;;;;;19.70;43.74;96678.19;5004335;28;20513;-63
2023/04/22 07:52:27;;;;;;;0.80;0.80;;;;;;;20.29;43.34;96743.41;4997139;28;20070;-60
2023/04/22 07:54:54;;;;;;;0.98;0.98;;;;;;;20.36;42.66;96743.22;4986490;28;20050;-65
2023/04/22 07:57:21;;;;;;;0.70;0.70;;;;;;;17.02;44.55;96424.25;4992808;28;20590;-63
2023/04/22 07:59:48;;;;;;;0.82;0.82;;;;;;;19.41;46.35;96740.66;5006506;28;20053;-61
2023/04/22 08:02:15;;;;;;;0.80;0.80;;;;;;;19.28;45.71;96747.41;5004451;28;20058;-65
2023/04/22 08:04:42;;;;;;;0.73;0.73;;;;;;;17.47;45.77;96512.22;5003873;28;20432;-67
2023/04/22 08:07:09;;;;;;;0.80;0.80;;;;;;;17.82;49.40;96561.97;5006229;28;20062;-63
2023/04/22 08:09:55;;;;;;;0.80;0.80;;;;;;;18.46;50.27;96736.22;5004078;28;20058;-65
2023/04/22 08:12:22;;;;;;;0.80;0.80;;;;;;;18.70;50.53;96740.53;4997550;28;20058;-66
2023/04/22 08:14:49;;;;;;;0.90;0.90;;;;;;;18.49;51.28;96656.03;5004547;28;20505;-65
2023/04/22 08:17:16;;;;;;;0.80;0.80;;;;;;;18.46;50.77;96635.25;5003352;28;20559;-65
2023/04/22 08:19:42;;;;;;;0.70;0.70;;;;;;;18.70;49.29;96650.75;5002374;28;20058;-64
2023/04/22 08:22:09;;;;;;;0.80;0.80;;;;;;;18.26;47.06;96712.91;5005227;28;20057;-61
2023/04/22 08:24:36;;;;;;;0.80;0.80;;;;;;;18.36;49.43;96742.78;5005567;28;20574;-67
2023/04/22 08:27:02;;;;;;;0.80;0.80;;;;;;;18.26;49.58;96737.38;5004634;28;20496;-63
2023/04/22 08:29:29;;;;;;;0.80;0.80;;;;;;;18.27;47.24;96683.66;5005411;28;20047;-65
2023/04/22 08:31:56;;;;;;;0.80;0.80;;;;;;;18.62;44.38;96753.13;5004514;28;20072;-64
2023/04/22 08:34:23;;;;;;;0.98;0.98;;;;;;;17.91;50.04;96719.13;5003917;28;20054;-63
2023/04/22 08:36:50;;;;;;;0.80;0.80;;;;;;;17.71;48.28;96751.88;5004471;28;20579;-64
2023/04/22 08:39:17;;;;;;;0.80;0.80;;;;;;;16.82;48.73;96627.63;5004657;28;20062;-67
2023/04/22 08:41:45;;;;;;;0.80;0.80;;;;;;;18.03;47.74;96746.56;5001364;28;20133;-61
2023/04/22 08:44:13;;;;;;;0.70;0.70;;;;;;;17.04;49.93;96640.88;5004123;28;20046;-66
2023/04/22 08:46:45;;;;;;;0.80;0.80;;;;;;;17.49;52.74;96768.22;5011141;28;20099;-64
2023/04/22 08:49:14;;;;;;;0.80;0.80;;;;;;;16.93;52.60;96762.56;5000098;28;20061;-63
2023/04/22 08:51:42;;;;;;;0.70;0.70;;;;;;;16.92;49.87;96716.19;4994732;28;20054;-64
2023/04/22 08:54:10;;;;;;;0.70;0.70;;;;;;;17.24;51.83;96727.75;4997567;28;20108;-66
2023/04/22 08:56:44;;;;;;;0.80;0.80;;;;;;;17.56;50.27;96761.75;5004009;28;20330;-67
2023/04/22 08:59:11;;;;;;;0.80;0.80;;;;;;;17.69;49.22;96751.50;4982606;28;20470;-62
2023/04/22 09:01:39;;;;;;;0.80;0.80;;;;;;;18.55;52.21;96744.84;5009867;28;20053;-62
2023/04/22 09:04:09;;;;;;;0.80;0.80;;;;;;;16.95;54.24;96642.59;5022358;28;20198;-62
2023/04/22 09:06:37;;;;;;;0.75;0.75;;;;;;;17.23;56.69;96679.38;5016666;28;20111;-62
2023/04/22 09:09:04;;;;;;;0.80;0.80;;;;;;;17.98;56.76;96705.81;5022645;28;20136;-62
2023/04/22 09:11:32;;;;;;;0.80;0.80;;;;;;;18.06;54.20;96757.72;5023316;28;20500;-64
2023/04/22 09:13:59;;;;;;;0.80;0.80;;;;;;;16.78;52.95;96610.09;5020249;28;20061;-63
2023/04/22 09:16:25;;;;;;;0.80;0.80;;;;;;;17.51;52.42;96709.00;5021556;28;20108;-63
2023/04/22 09:18:52;;;;;;;0.80;0.80;;;;;;;17.47;50.23;96744.66;5014394;28;20049;-62
2023/04/22 09:21:19;;;;;;;0.70;0.70;;;;;;;17.41;51.05;96741.50;5024219;28;20049;-64
2023/04/22 09:23:53;;;;;;;0.70;0.70;;;;;;;18.07;48.23;96714.44;5023177;28;20053;-61
2023/04/22 09:26:22;;;;;;;0.70;0.70;;;;;;;16.95;47.30;96648.19;5019448;28;20045;-61
2023/04/22 09:28:59;;;;;;;0.70;0.70;;;;;;;18.29;49.09;96731.69;5039294;28;20057;-62
2023/04/22 09:31:27;;;;;;;0.80;0.80;;;;;;;18.02;44.29;96733.75;5011049;28;20057;-62
2023/04/22 09:33:57;;;;;;;0.80;0.80;;;;;;;17.83;43.87;96734.50;5005494;28;20050;-62
2023/04/22 09:36:28;;;;;;;0.80;0.80;;;;;;;17.81;47.59;96739.72;5005174;28;20085;-65
2023/04/22 09:39:00;;;;;;;0.80;0.80;;;;;;;16.72;47.72;96539.84;5003799;28;20054;-69
2023/04/22 09:41:35;;;;;;;0.80;0.80;;;;;;;17.97;48.47;96732.22;5005407;28;20537;-64
2023/04/22 09:44:03;;;;;;;0.80;0.80;;;;;;;17.89;48.43;96674.72;5020462;28;20061;-67
2023/04/22 09:46:30;;;;;;;0.80;0.80;;;;;;;17.79;47.26;96663.72;5021946;28;20448;-66
2023/04/22 09:48:58;;;;;;;0.80;0.80;;;;;;;18.21;47.45;96690.19;5015703;28;20453;-65
2023/04/22 09:51:29;;;;;;;0.80;0.80;;;;;;;18.42;48.79;96740.28;5016646;28;20160;-65
2023/04/22 09:53:59;;;;;;;0.80;0.80;;;;;;;17.91;49.42;96699.50;5023964;28;20056;-65
2023/04/22 09:56:42;;;;;;;0.80;0.80;;;;;;;17.90;48.26;96737.16;5024198;28;20054;-64
2023/04/22 09:59:09;;;;;;;0.80;0.80;;;;;;;17.90;46.85;96725.97;5022381;28;20507;-65
2023/04/22 10:01:40;;;;;;;0.80;0.80;;;;;;;17.87;48.27;96712.81;5023713;28;20045;-61
2023/04/22 10:04:08;;;;;;;0.80;0.80;;;;;;;17.38;49.98;96683.56;5023503;28;20049;-63
2023/04/22 10:06:36;;;;;;;0.80;0.80;;;;;;;17.82;51.29;96724.50;5022192;28;20057;-61
2023/04/22 10:09:03;;;;;;;0.80;0.80;;;;;;;18.11;52.01;96729.19;5023320;28;20437;-62
2023/04/22 10:11:33;;;;;;;0.70;0.70;;;;;;;18.26;49.68;96732.53;5024258;28;20049;-63
2023/04/22 10:14:00;;;;;;;0.70;0.70;;;;;;;17.71;50.95;96701.47;5023354;28;20049;-60
2023/04/22 10:16:29;;;;;;;0.70;0.70;;;;;;;17.72;52.37;96731.09;5024078;28;20061;-65
2023/04/22 10:18:59;;;;;;;0.80;0.80;;;;;;;17.84;52.36;96733.28;5023841;28;20053;-64
2023/04/22 10:21:27;;;;;;;0.80;0.80;;;;;;;17.86;51.33;96674.81;5023888;28;20506;-64
2023/04/22 10:23:53;;;;;;;0.80;0.80;;;;;;;18.50;51.51;96725.72;5023623;28;20103;-62
2023/04/22 10:26:50;;;;;;;0.77;0.77;;;;;;;17.63;53.15;96694.38;5023816;28;20730;-61
2023/04/22 10:29:19;;;;;;;0.80;0.80;;;;;;;17.93;52.74;96719.50;5023340;28;20061;-63
2023/04/22 10:31:58;;;;;;;0.70;0.70;;;;;;;17.54;51.55;96686.53;5023236;28;20057;-61
2023/04/22 10:34:24;;;;;;;0.77;0.77;;;;;;;18.09;51.70;96730.84;5022594;28;20085;-62
2023/04/22 10:36:57;;;;;;;0.80;0.80;;;;;;;17.51;50.78;96648.19;5023088;28;20045;-61
2023/04/22 10:39:25;;;;;;;0.80;0.80;;;;;;;17.61;49.85;96744.44;5024062;28;20115;-63
2023/04/22 10:41:55;;;;;;;0.70;0.70;;;;;;;17.10;51.82;96733.56;5025681;28;20143;-61
2023/04/22 10:44:27;;;;;;;0.80;0.80;;;;;;;16.15;52.90;96623.66;5026832;28;20103;-63
2023/04/22 10:47:08;;;;;;;0.80;0.80;;;;;;;16.86;52.79;96717.88;1093138;28;10020729;-79
2023/04/22 10:49:42;;;;;;;0.67;0.67;;;;;;;16.39;53.68;96650.50;17;3726;10021753;-61
2023/04/22 10:52:27;;;;;;;0.70;0.70;;;;;;;17.12;55.34;96737.50;4330768;28;10000467;-60
2023/04/22 10:54:56;;;;;;;0.80;0.80;;;;;;;17.33;54.54;96742.03;5024237;28;20073;-61
2023/04/22 10:57:32;;;;;;;0.70;0.70;;;;;;;17.38;53.89;96750.75;5026958;28;20137;-62
2023/04/22 11:00:01;;;;;;;0.80;0.80;;;;;;;16.60;52.69;96644.69;5026949;28;20119;-61
2023/04/22 11:02:28;;;;;;;0.70;0.70;;;;;;;17.07;52.19;96696.00;5018550;28;20108;-62
2023/04/22 11:05:18;;;;;;;0.75;0.75;;;;;;;17.19;51.30;96753.41;5026531;28;20057;-63
2023/04/22 11:07:46;;;;;;;0.70;0.70;;;;;;;16.43;53.62;96749.13;5025505;28;20060;-63
2023/04/22 11:10:33;;;;;;;0.70;0.70;;;;;;;16.56;55.88;96761.41;5027084;28;20049;-63
2023/04/22 11:13:01;;;;;;;0.70;0.70;;;;;;;16.49;55.98;96772.66;5027204;28;20057;-63
2023/04/22 11:15:30;;;;;;;0.70;0.70;;;;;;;17.04;54.57;96782.81;5026704;28;20072;-64
2023/04/22 11:17:57;;;;;;;0.70;0.70;;;;;;;17.35;53.58;96773.19;5027014;28;20061;-63
2023/04/22 11:20:24;;;;;;;0.70;0.70;;;;;;;17.44;54.44;96776.25;5026966;28;20057;-65
2023/04/22 11:22:52;;;;;;;0.80;0.80;;;;;;;17.59;54.35;96780.50;5027068;28;20107;-63
2023/04/22 11:25:20;;;;;;;0.80;0.80;;;;;;;17.85;53.50;96790.91;5025182;28;20365;-66
2023/04/22 11:27:47;;;;;;;0.73;0.73;;;;;;;17.57;53.40;96763.31;5026938;28;20054;-63
2023/04/22 11:30:17;;;;;;;0.70;0.70;;;;;;;17.00;54.69;96796.03;5025139;28;20058;-63
2023/04/22 11:32:57;;;;;;;0.80;0.80;;;;;;;16.52;57.21;96810.97;5025230;28;20119;-64
2023/04/22 11:35:32;;;;;;;0.73;0.73;;;;;;;16.21;59.88;96812.03;5026693;28;20084;-65